createdAt,value
2022-08-03T00:00:31.791Z,25.02
2022-08-03T00:02:59.560Z,25.12
2022-08-03T00:05:27.296Z,25.11
2022-08-03T00:07:55.127Z,25.05
2022-08-03T00:10:23.619Z,25.03
2022-08-03T00:12:52.634Z,24.96
2022-08-03T00:15:20.500Z,25.00
2022-08-03T00:17:52.977Z,24.96
2022-08-03T00:20:21.891Z,25.02
2022-08-03T00:22:50.052Z,25.01
2022-08-03T00:25:17.802Z,24.88
2022-08-03T00:27:45.528Z,24.71
2022-08-03T00:30:17.689Z,24.56
2022-08-03T00:32:45.654Z,24.51
2022-08-03T00:35:36.481Z,24.53
2022-08-03T00:38:01.257Z,24.50
2022-08-03T00:40:29.329Z,24.44
2022-08-03T00:42:58.884Z,24.39
2022-08-03T00:45:30.517Z,24.37
2022-08-03T00:47:59.197Z,24.34
2022-08-03T00:50:28.949Z,24.30
2022-08-03T00:52:58.256Z,24.23
2022-08-03T00:55:26.557Z,24.14
2022-08-03T00:57:54.707Z,24.12
2022-08-03T01:00:23.782Z,24.10
2022-08-03T01:02:53.869Z,24.09
2022-08-03T01:05:22.667Z,24.07
2022-08-03T01:08:06.735Z,24.04
2022-08-03T01:10:41.776Z,23.95
2022-08-03T01:14:01.462Z,23.94
2022-08-03T01:16:16.448Z,23.94
2022-08-03T01:18:52.985Z,23.98
2022-08-03T01:21:27.614Z,23.96
2022-08-03T01:24:07.198Z,23.92
2022-08-03T01:26:55.192Z,23.95
2022-08-03T01:29:47.231Z,23.87
2022-08-03T01:32:59.365Z,23.94
2022-08-03T01:35:10.398Z,24.04
2022-08-03T01:37:43.511Z,24.00
2022-08-03T01:40:14.403Z,23.92
2022-08-03T01:42:43.781Z,23.88
2022-08-03T01:45:17.860Z,23.78
2022-08-03T01:47:46.845Z,23.70
2022-08-03T01:50:16.193Z,23.59
2022-08-03T01:52:47.301Z,23.50
2022-08-03T01:55:18.281Z,23.41
2022-08-03T01:58:06.063Z,23.35
2022-08-03T02:00:38.323Z,23.38
2022-08-03T02:03:08.166Z,23.45
2022-08-03T02:05:37.502Z,23.49
2022-08-03T02:08:07.754Z,23.50
2022-08-03T02:10:37.162Z,23.46
2022-08-03T02:13:08.206Z,23.47
2022-08-03T02:15:38.872Z,23.48
2022-08-03T02:18:09.926Z,23.49
2022-08-03T02:20:39.327Z,23.46
2022-08-03T02:23:07.872Z,23.41
2022-08-03T02:25:39.758Z,23.42
2022-08-03T02:28:09.834Z,23.48
2022-08-03T02:30:41.928Z,23.48
2022-08-03T02:33:15.178Z,23.49
2022-08-03T02:35:44.969Z,23.47
2022-08-03T02:38:15.120Z,23.49
2022-08-03T02:40:45.922Z,23.46
2022-08-03T02:43:18.995Z,23.39
2022-08-03T02:45:50.703Z,23.33
2022-08-03T02:48:22.676Z,23.27
2022-08-03T02:50:54.088Z,23.25
2022-08-03T02:53:25.565Z,23.21
2022-08-03T02:55:54.928Z,23.19
2022-08-03T02:58:25.685Z,23.20
2022-08-03T03:00:55.869Z,23.12
2022-08-03T03:03:25.614Z,23.19
2022-08-03T03:05:57.627Z,23.23
2022-08-03T03:08:28.830Z,23.21
2022-08-03T03:10:59.250Z,23.15
2022-08-03T03:13:29.243Z,23.18
2022-08-03T03:16:02.338Z,23.18
2022-08-03T03:18:32.004Z,23.32
2022-08-03T03:21:01.731Z,23.29
2022-08-03T03:23:30.071Z,23.34
2022-08-03T03:25:58.952Z,23.26
2022-08-03T03:28:26.931Z,23.20
2022-08-03T03:30:54.847Z,23.25
2022-08-03T03:33:24.791Z,23.15
2022-08-03T03:35:52.829Z,23.15
2022-08-03T03:38:21.002Z,23.09
2022-08-03T03:40:50.246Z,23.12
2022-08-03T03:43:18.813Z,23.25
2022-08-03T03:45:46.994Z,23.20
2022-08-03T03:48:15.326Z,23.23
2022-08-03T03:50:45.061Z,23.06
2022-08-03T03:53:14.621Z,22.91
2022-08-03T03:55:59.348Z,23.00
2022-08-03T03:58:31.962Z,22.77
2022-08-03T04:00:59.923Z,22.89
2022-08-03T04:03:27.768Z,22.81
2022-08-03T04:06:14.800Z,22.99
2022-08-03T04:09:00.171Z,23.03
2022-08-03T04:11:32.011Z,22.85
2022-08-03T04:14:06.584Z,23.14
2022-08-03T04:16:43.114Z,23.16
2022-08-03T04:19:19.798Z,22.94
2022-08-03T04:21:57.058Z,22.71
2022-08-03T04:24:28.128Z,22.59
2022-08-03T04:26:58.351Z,22.49
2022-08-03T04:29:27.798Z,22.81
2022-08-03T04:31:58.523Z,23.07
2022-08-03T04:34:26.364Z,23.07
2022-08-03T04:37:00.167Z,23.23
2022-08-03T04:39:30.908Z,23.20
2022-08-03T04:42:09.058Z,23.23
2022-08-03T04:44:40.650Z,23.30
2022-08-03T04:47:08.786Z,23.31
2022-08-03T04:49:38.224Z,23.19
2022-08-03T04:52:09.941Z,23.10
2022-08-03T04:54:41.498Z,22.99
2022-08-03T04:57:09.181Z,23.09
2022-08-03T04:59:40.962Z,23.19
2022-08-03T05:02:08.690Z,23.18
2022-08-03T05:04:38.011Z,23.14
2022-08-03T05:07:12.255Z,23.23
2022-08-03T05:09:50.539Z,23.21
2022-08-03T05:12:20.645Z,23.36
2022-08-03T05:14:48.436Z,23.25
2022-08-03T05:17:16.111Z,23.15
2022-08-03T05:19:43.812Z,23.08
2022-08-03T05:22:12.876Z,23.18
2022-08-03T05:24:40.587Z,23.13
2022-08-03T05:27:08.361Z,23.25
2022-08-03T05:29:36.149Z,23.34
2022-08-03T05:32:08.173Z,23.28
2022-08-03T05:34:36.586Z,23.33
2022-08-03T05:37:04.387Z,23.38
2022-08-03T05:39:33.465Z,23.18
2022-08-03T05:42:01.935Z,22.95
2022-08-03T05:44:30.974Z,22.72
2022-08-03T05:46:59.488Z,22.70
2022-08-03T05:49:27.426Z,23.11
2022-08-03T05:51:59.980Z,22.99
2022-08-03T05:54:56.120Z,23.16
2022-08-03T05:57:25.416Z,23.39
2022-08-03T05:59:53.878Z,23.56
2022-08-03T06:02:26.653Z,23.34
2022-08-03T06:05:03.718Z,23.26
2022-08-03T06:07:31.869Z,23.13
2022-08-03T06:10:36.259Z,23.08
2022-08-03T06:12:51.086Z,23.08
2022-08-03T06:30:38.464Z,23.56
2022-08-03T06:33:08.214Z,23.47
2022-08-03T06:35:36.106Z,23.44
2022-08-03T06:38:04.895Z,23.43
2022-08-03T06:40:34.083Z,23.46
2022-08-03T06:43:03.971Z,23.50
2022-08-03T06:45:32.279Z,23.53
2022-08-03T06:48:06.419Z,23.55
2022-08-03T06:50:35.303Z,23.57
2022-08-03T06:53:03.536Z,23.64
2022-08-03T06:55:31.665Z,23.67
2022-08-03T06:58:03.589Z,23.77
2022-08-03T07:00:32.065Z,23.74
2022-08-03T07:02:59.871Z,23.77
2022-08-03T07:05:30.479Z,23.80
2022-08-03T07:07:59.197Z,23.84
2022-08-03T07:10:27.701Z,23.88
2022-08-03T07:12:56.759Z,23.92
2022-08-03T07:15:55.583Z,23.99
2022-08-03T07:18:13.115Z,24.05
2022-08-03T07:20:42.300Z,24.07
2022-08-03T07:23:17.553Z,24.09
2022-08-03T07:25:47.402Z,24.12
2022-08-03T07:28:15.375Z,24.14
2022-08-03T07:30:43.129Z,24.17
2022-08-03T07:33:11.554Z,24.20
2022-08-03T07:35:39.608Z,24.23
2022-08-03T07:38:08.641Z,24.29
2022-08-03T07:40:36.381Z,24.41
2022-08-03T07:43:04.969Z,24.45
2022-08-03T07:45:33.480Z,24.42
2022-08-03T07:48:01.542Z,24.52
2022-08-03T07:50:30.468Z,24.53
2022-08-03T07:53:09.156Z,24.60
2022-08-03T07:55:39.008Z,24.81
2022-08-03T07:58:10.226Z,24.76
2022-08-03T08:00:39.067Z,24.86
2022-08-03T08:03:07.472Z,24.78
2022-08-03T08:05:35.826Z,24.76
2022-08-03T08:08:04.257Z,24.74
2022-08-03T08:10:32.725Z,24.77
2022-08-03T08:13:02.260Z,24.93
2022-08-03T08:15:30.282Z,25.06
2022-08-03T08:17:59.751Z,25.08
2022-08-03T08:20:31.828Z,25.09
2022-08-03T08:23:03.420Z,25.08
2022-08-03T08:25:38.191Z,25.61
2022-08-03T08:28:32.412Z,25.77
2022-08-03T08:31:10.776Z,25.67
2022-08-03T08:36:26.101Z,25.37
2022-08-03T08:38:53.748Z,25.31
2022-08-03T08:41:21.430Z,25.30
2022-08-03T08:43:50.518Z,25.46
2022-08-03T08:46:23.886Z,25.48
2022-08-03T08:48:53.157Z,25.47
2022-08-03T08:51:22.294Z,25.52
2022-08-03T08:53:53.639Z,25.75
2022-08-03T08:56:25.462Z,25.72
2022-08-03T08:58:59.143Z,25.69
2022-08-03T09:01:27.571Z,25.61
2022-08-03T09:03:55.786Z,25.66
2022-08-03T09:06:24.010Z,25.80
2022-08-03T09:08:51.870Z,26.01
2022-08-03T09:11:51.763Z,26.41
2022-08-03T09:14:34.366Z,26.64
2022-08-03T09:17:02.117Z,26.51
2022-08-03T09:19:30.723Z,26.29
2022-08-03T09:22:16.882Z,26.19
2022-08-03T09:25:21.616Z,26.63
2022-08-03T09:27:45.801Z,26.60
2022-08-03T09:30:33.608Z,26.42
2022-08-03T09:33:03.352Z,26.26
2022-08-03T09:38:23.930Z,26.34
2022-08-03T09:40:55.936Z,26.71
2022-08-03T09:43:27.583Z,26.80
2022-08-03T09:46:07.449Z,26.68
2022-08-03T09:48:36.810Z,26.98
2022-08-03T09:51:13.253Z,26.84
2022-08-03T09:53:59.619Z,26.65
2022-08-03T09:56:40.052Z,26.82
2022-08-03T09:59:08.113Z,26.70
2022-08-03T10:01:41.615Z,26.57
2022-08-03T10:04:15.021Z,26.63
2022-08-03T10:06:42.757Z,26.81
2022-08-03T10:09:14.291Z,27.15
2022-08-03T10:11:43.401Z,27.02
2022-08-03T10:14:18.695Z,26.77
2022-08-03T10:16:48.905Z,26.69
2022-08-03T10:19:17.558Z,27.01
2022-08-03T10:21:51.189Z,27.26
2022-08-03T10:24:26.448Z,27.15
2022-08-03T10:26:58.787Z,27.01
2022-08-03T10:29:29.906Z,26.57
2022-08-03T10:32:00.508Z,27.85
2022-08-03T10:34:35.007Z,31.05
2022-08-03T10:37:09.026Z,32.76
2022-08-03T10:39:37.331Z,33.73
2022-08-03T10:42:13.520Z,34.26
2022-08-03T10:44:43.444Z,34.62
2022-08-03T10:47:12.923Z,34.86
2022-08-03T10:49:41.222Z,35.03
2022-08-03T10:52:30.371Z,35.22
2022-08-03T10:55:16.156Z,35.38
2022-08-03T10:57:48.884Z,35.06
2022-08-03T11:00:19.141Z,34.52
2022-08-03T11:03:11.433Z,34.24
2022-08-03T11:05:41.946Z,34.33
2022-08-03T11:08:27.851Z,34.32
2022-08-03T11:10:58.161Z,34.48
2022-08-03T11:13:30.851Z,34.62
2022-08-03T11:16:04.780Z,34.77
2022-08-03T11:18:36.341Z,34.64
2022-08-03T11:21:04.352Z,34.78
2022-08-03T11:24:02.717Z,34.93
2022-08-03T11:26:31.084Z,35.01
2022-08-03T11:29:28.661Z,35.01
2022-08-03T11:31:56.532Z,35.06
2022-08-03T11:34:25.904Z,35.05
2022-08-03T11:37:23.579Z,34.95
2022-08-03T11:39:54.899Z,35.08
2022-08-03T11:42:41.714Z,35.21
2022-08-03T11:45:10.899Z,35.29
2022-08-03T11:47:50.968Z,35.32
2022-08-03T11:50:21.405Z,35.41
2022-08-03T11:52:50.546Z,35.45
2022-08-03T11:55:20.520Z,35.43
2022-08-03T11:59:15.142Z,35.43
2022-08-03T12:00:36.779Z,35.32
2022-08-03T12:03:07.975Z,35.21
2022-08-03T12:05:39.117Z,35.20
2022-08-03T12:08:07.917Z,35.38
2022-08-03T12:10:35.938Z,35.52
2022-08-03T12:14:44.169Z,35.44
2022-08-03T12:15:59.130Z,35.43
2022-08-03T12:18:27.287Z,35.48
2022-08-03T12:21:06.220Z,34.72
2022-08-03T12:23:37.700Z,34.95
2022-08-03T12:26:07.563Z,35.33
2022-08-03T12:28:37.909Z,35.57
2022-08-03T12:31:09.107Z,35.70
2022-08-03T12:33:59.386Z,35.75
2022-08-03T12:36:29.201Z,35.34
2022-08-03T12:38:59.890Z,35.37
2022-08-03T12:41:34.226Z,35.43
2022-08-03T12:44:03.360Z,35.61
2022-08-03T12:46:33.186Z,35.77
2022-08-03T12:49:07.874Z,35.70
2022-08-03T12:51:40.047Z,35.51
2022-08-03T12:54:07.904Z,35.57
2022-08-03T12:56:36.366Z,35.61
2022-08-03T12:59:25.769Z,35.67
2022-08-03T13:02:04.374Z,35.47
2022-08-03T13:04:33.817Z,35.68
2022-08-03T13:07:05.563Z,35.11
2022-08-03T13:09:43.041Z,34.51
2022-08-03T13:12:12.778Z,33.94
2022-08-03T13:14:40.798Z,33.56
2022-08-03T13:17:09.276Z,33.09
2022-08-03T13:19:37.926Z,32.74
2022-08-03T13:22:13.977Z,32.51
2022-08-03T13:24:42.562Z,32.33
2022-08-03T13:28:01.378Z,32.27
2022-08-03T13:29:58.885Z,32.16
2022-08-03T13:32:26.977Z,32.07
2022-08-03T13:34:54.735Z,31.95
2022-08-03T13:37:23.948Z,31.89
2022-08-03T13:39:59.306Z,31.83
2022-08-03T13:42:29.594Z,31.78
2022-08-03T13:44:57.551Z,31.72
2022-08-03T13:47:25.323Z,31.66
2022-08-03T13:49:59.886Z,31.64
2022-08-03T13:52:31.683Z,31.57
2022-08-03T13:54:59.867Z,31.50
2022-08-03T13:58:03.905Z,31.58
2022-08-03T14:00:28.190Z,31.51
2022-08-03T14:03:03.819Z,31.45
2022-08-03T14:05:34.133Z,31.43
2022-08-03T14:08:05.643Z,31.42
2022-08-03T14:10:38.006Z,31.34
2022-08-03T14:13:06.038Z,31.45
2022-08-03T14:15:37.879Z,31.36
2022-08-03T14:18:06.504Z,31.40
2022-08-03T14:20:36.311Z,31.54
2022-08-03T14:23:07.002Z,31.59
2022-08-03T14:25:43.424Z,31.71
2022-08-03T14:28:18.542Z,31.91
2022-08-03T14:30:46.701Z,32.09
2022-08-03T14:33:14.363Z,32.37
2022-08-03T14:35:42.066Z,32.73
2022-08-03T14:38:11.164Z,33.10
2022-08-03T14:40:38.967Z,33.46
2022-08-03T14:43:06.741Z,33.77
2022-08-03T14:45:34.968Z,34.04
2022-08-03T14:50:29.165Z,34.30
2022-08-03T14:50:51.973Z,34.55
2022-08-03T14:53:21.134Z,34.47
2022-08-03T14:55:51.582Z,34.68
2022-08-03T14:58:21.367Z,34.90
2022-08-03T15:00:50.928Z,35.09
2022-08-03T15:03:20.483Z,35.16
2022-08-03T15:05:48.483Z,35.33
2022-08-03T15:08:16.229Z,35.45
2022-08-03T15:10:45.665Z,35.59
2022-08-03T15:13:13.620Z,35.64
2022-08-03T15:15:41.828Z,35.68
2022-08-03T15:18:10.144Z,35.68
2022-08-03T15:20:46.653Z,35.67
2022-08-03T15:23:15.730Z,35.77
2022-08-03T15:26:28.904Z,35.71
2022-08-03T15:28:33.557Z,35.71
2022-08-03T15:31:01.300Z,35.70
2022-08-03T15:33:29.173Z,35.64
2022-08-03T15:35:58.044Z,35.65
2022-08-03T15:38:26.482Z,35.60
2022-08-03T15:40:55.756Z,35.53
2022-08-03T15:43:23.571Z,35.48
2022-08-03T15:46:18.995Z,35.51
2022-08-03T15:48:39.392Z,35.53
2022-08-03T15:51:08.010Z,35.54
2022-08-03T15:53:36.018Z,35.54
2022-08-03T15:56:11.352Z,35.53
2022-08-03T15:59:09.809Z,35.43
2022-08-03T16:01:29.163Z,35.39
2022-08-03T16:03:57.231Z,35.42
2022-08-03T16:06:29.722Z,35.31
2022-08-03T16:09:03.408Z,35.26
2022-08-03T16:11:32.530Z,35.18
2022-08-03T16:14:12.810Z,35.13
2022-08-03T16:16:47.945Z,35.06
2022-08-03T16:19:15.810Z,34.99
2022-08-03T16:21:48.274Z,34.92
2022-08-03T16:24:17.525Z,34.84
2022-08-03T16:26:49.068Z,34.82
2022-08-03T16:29:23.653Z,34.85
2022-08-03T16:31:52.280Z,34.74
2022-08-03T16:34:20.249Z,34.69
2022-08-03T16:36:47.931Z,34.65
2022-08-03T16:39:15.963Z,34.55
2022-08-03T16:41:54.328Z,34.56
2022-08-03T16:44:30.969Z,34.45
2022-08-03T16:46:58.837Z,34.33
2022-08-03T16:49:54.188Z,34.30
2022-08-03T16:52:14.381Z,34.32
2022-08-03T16:54:50.658Z,34.30
2022-08-03T16:57:56.560Z,34.19
2022-08-03T17:00:12.109Z,34.10
2022-08-03T17:03:00.893Z,34.07
2022-08-03T17:05:46.878Z,33.99
2022-08-03T17:08:15.684Z,33.86
2022-08-03T17:10:44.502Z,33.73
2022-08-03T17:13:22.004Z,33.58
2022-08-03T17:16:01.351Z,33.51
2022-08-03T17:18:35.192Z,33.43
2022-08-03T17:21:05.782Z,33.35
2022-08-03T17:23:42.837Z,33.36
2022-08-03T17:26:21.109Z,33.14
2022-08-03T17:28:57.876Z,32.96
2022-08-03T17:31:32.262Z,32.84
2022-08-03T17:34:15.460Z,32.73
2022-08-03T17:37:03.751Z,32.57
2022-08-03T17:39:57.767Z,32.44
2022-08-03T17:42:31.163Z,32.31
2022-08-03T17:45:02.306Z,32.22
2022-08-03T17:47:41.424Z,32.14
2022-08-03T17:50:24.676Z,32.04
2022-08-03T17:53:07.682Z,32.04
2022-08-03T17:55:55.276Z,31.91
2022-08-03T17:58:41.258Z,31.80
2022-08-03T18:02:01.934Z,31.72
2022-08-03T18:04:29.725Z,31.62
2022-08-03T18:07:11.764Z,31.56
2022-08-03T18:10:03.451Z,31.46
2022-08-03T18:12:39.839Z,31.38
2022-08-03T18:15:22.192Z,31.32
2022-08-03T18:17:55.313Z,31.28
2022-08-03T18:20:45.764Z,31.23
2022-08-03T18:23:25.318Z,31.16
2022-08-03T18:26:07.735Z,31.06
2022-08-03T18:28:42.451Z,31.07
2022-08-03T18:31:11.907Z,30.99
2022-08-03T18:34:16.628Z,30.95
2022-08-03T18:36:31.931Z,30.92
2022-08-03T18:39:03.207Z,30.82
2022-08-03T18:41:34.699Z,30.80
2022-08-03T18:44:07.070Z,30.70
2022-08-03T18:46:48.983Z,30.64
2022-08-03T18:49:29.551Z,30.61
2022-08-03T18:52:05.279Z,30.54
2022-08-03T18:55:02.335Z,30.45
2022-08-03T18:57:40.289Z,30.43
2022-08-03T19:00:14.062Z,30.35
2022-08-03T19:02:48.597Z,30.29
2022-08-03T19:05:20.266Z,30.23
2022-08-03T19:07:59.808Z,30.18
2022-08-03T19:10:32.155Z,30.14
2022-08-03T19:13:05.316Z,30.07
2022-08-03T19:15:51.227Z,30.01
2022-08-03T19:18:22.510Z,29.96
2022-08-03T19:20:54.650Z,29.90
2022-08-03T19:23:26.299Z,29.86
2022-08-03T19:26:03.093Z,29.84
2022-08-03T19:28:31.217Z,29.80
2022-08-03T19:31:02.655Z,29.81
2022-08-03T19:33:56.145Z,29.76
2022-08-03T19:36:27.350Z,29.72
2022-08-03T19:38:58.561Z,29.77
2022-08-03T19:41:31.167Z,29.79
2022-08-03T19:44:11.524Z,29.77
2022-08-03T19:46:47.827Z,29.74
2022-08-03T19:49:17.275Z,29.62
2022-08-03T19:52:00.807Z,29.58
2022-08-03T19:54:45.700Z,29.58
2022-08-03T19:57:24.161Z,29.51
2022-08-03T19:59:53.620Z,29.45
2022-08-03T20:02:25.606Z,29.38
2022-08-03T20:04:56.002Z,29.30
2022-08-03T20:07:24.133Z,29.24
2022-08-03T20:09:54.569Z,29.18
2022-08-03T20:12:27.619Z,29.19
2022-08-03T20:14:57.360Z,29.14
2022-08-03T20:17:54.881Z,29.08
2022-08-03T20:20:13.678Z,29.16
2022-08-03T20:22:45.537Z,29.18
2022-08-03T20:25:21.030Z,29.22
2022-08-03T20:28:07.218Z,29.24
2022-08-03T20:30:42.612Z,29.58
2022-08-03T20:33:10.920Z,29.37
2022-08-03T20:35:41.807Z,29.32
2022-08-03T20:38:10.260Z,29.43
2022-08-03T20:40:39.855Z,29.16
2022-08-03T20:43:09.284Z,29.23
2022-08-03T20:45:59.762Z,29.18
2022-08-03T20:48:27.552Z,29.01
2022-08-03T20:50:56.842Z,29.11
2022-08-03T20:53:57.292Z,29.26
2022-08-03T20:56:15.075Z,29.23
2022-08-03T20:58:50.733Z,29.26
2022-08-03T21:01:27.691Z,29.25
2022-08-03T21:04:06.896Z,28.99
2022-08-03T21:06:38.127Z,28.76
2022-08-03T21:09:07.654Z,28.74
2022-08-03T21:11:41.937Z,28.73
2022-08-03T21:14:16.358Z,28.66
2022-08-03T21:16:46.162Z,28.54
2022-08-03T21:19:15.463Z,28.42
2022-08-03T21:21:47.719Z,28.52
2022-08-03T21:24:16.293Z,28.56
2022-08-03T21:26:48.355Z,28.43
2022-08-03T21:29:16.743Z,28.30
2022-08-03T21:31:44.944Z,28.24
2022-08-03T21:34:12.997Z,28.16
2022-08-03T21:36:40.805Z,28.11
2022-08-03T21:39:10.521Z,28.12
2022-08-03T21:41:40.109Z,28.19
2022-08-03T21:44:09.454Z,28.38
2022-08-03T21:46:39.174Z,28.77
2022-08-03T21:50:07.971Z,28.85
2022-08-03T21:52:00.421Z,28.85
2022-08-03T21:54:36.014Z,28.75
2022-08-03T21:57:06.892Z,28.67
2022-08-03T21:59:38.265Z,28.69
2022-08-03T22:02:20.020Z,28.75
2022-08-03T22:04:56.247Z,28.67
2022-08-03T22:07:26.358Z,28.56
2022-08-03T22:09:55.931Z,28.44
2022-08-03T22:12:26.067Z,28.34
2022-08-03T22:15:01.171Z,28.26
2022-08-03T22:17:54.046Z,28.18
2022-08-03T22:20:19.910Z,28.11
2022-08-03T22:22:54.969Z,28.07
2022-08-03T22:25:27.185Z,28.04
2022-08-03T22:27:55.722Z,28.01
2022-08-03T22:30:24.911Z,27.97
2022-08-03T22:32:56.038Z,27.88
2022-08-03T22:35:25.795Z,27.83
2022-08-03T22:37:55.446Z,27.79
2022-08-03T22:40:23.441Z,27.76
2022-08-03T22:42:53.969Z,27.72
2022-08-03T22:46:08.486Z,27.71
2022-08-03T22:48:11.943Z,27.68
2022-08-03T22:50:42.290Z,27.67
2022-08-03T22:53:10.650Z,27.68
2022-08-03T22:55:38.408Z,27.62
2022-08-03T22:58:06.206Z,27.55
2022-08-03T23:00:34.066Z,27.50
2022-08-03T23:03:07.334Z,27.46
2022-08-03T23:06:02.592Z,27.47
2022-08-03T23:08:26.779Z,27.48
2022-08-03T23:10:57.225Z,27.51
2022-08-03T23:13:26.467Z,27.49
2022-08-03T23:15:57.725Z,27.55
2022-08-03T23:18:30.435Z,27.55
2022-08-03T23:21:11.054Z,27.61
2022-08-03T23:23:44.172Z,27.51
2022-08-03T23:26:16.301Z,27.47
2022-08-03T23:28:47.743Z,27.42
2022-08-03T23:31:16.331Z,27.38
2022-08-03T23:33:46.026Z,27.36
2022-08-03T23:36:30.835Z,27.33
2022-08-03T23:39:03.423Z,27.26
2022-08-03T23:41:31.811Z,27.24
2022-08-03T23:44:01.866Z,27.21
2022-08-03T23:46:32.059Z,27.11
2022-08-03T23:49:00.787Z,27.00
2022-08-03T23:51:40.391Z,26.95
2022-08-03T23:54:20.449Z,26.95
2022-08-03T23:56:56.216Z,26.93
2022-08-03T23:59:31.628Z,26.77
